sensor_id;sensor_type;location;lat;lon;timestamp;pressure;altitude;pressure_sealevel;temperature;humidity
41306;BME280;27051;50.376;19.152;2024-03-02T00:00:13;97533.91;;;10.37;64.79
41306;BME280;27051;50.376;19.152;2024-03-02T00:03:20;97530.48;;;10.36;64.82
41306;BME280;27051;50.376;19.152;2024-03-02T00:05:58;97524.77;;;10.30;64.65
41306;BME280;27051;50.376;19.152;2024-03-02T00:08:28;97520.66;;;10.27;64.69
41306;BME280;27051;50.376;19.152;2024-03-02T00:11:07;97518.59;;;10.26;64.73
41306;BME280;27051;50.376;19.152;2024-03-02T00:13:45;97519.60;;;10.27;64.69
41306;BME280;27051;50.376;19.152;2024-03-02T00:16:32;97523.80;;;10.19;64.48
41306;BME280;27051;50.376;19.152;2024-03-02T00:19:05;97530.61;;;10.11;64.54
41306;BME280;27051;50.376;19.152;2024-03-02T00:21:33;97536.44;;;10.04;64.62
41306;BME280;27051;50.376;19.152;2024-03-02T00:27:04;97545.80;;;9.81;64.67
41306;BME280;27051;50.376;19.152;2024-03-02T00:29:56;97543.02;;;9.87;64.98
41306;BME280;27051;50.376;19.152;2024-03-02T00:32:22;97541.98;;;9.82;64.82
41306;BME280;27051;50.376;19.152;2024-03-02T00:34:54;97538.84;;;9.79;64.99
41306;BME280;27051;50.376;19.152;2024-03-02T00:37:22;97534.98;;;9.74;64.99
41306;BME280;27051;50.376;19.152;2024-03-02T00:39:49;97536.16;;;9.70;64.99
41306;BME280;27051;50.376;19.152;2024-03-02T00:42:19;97537.61;;;9.60;65.00
41306;BME280;27051;50.376;19.152;2024-03-02T00:44:47;97538.88;;;9.49;65.20
41306;BME280;27051;50.376;19.152;2024-03-02T00:47:14;97536.02;;;9.51;65.41
41306;BME280;27051;50.376;19.152;2024-03-02T00:49:41;97535.50;;;9.55;65.56
41306;BME280;27051;50.376;19.152;2024-03-02T00:52:11;97537.79;;;9.67;65.67
41306;BME280;27051;50.376;19.152;2024-03-02T00:54:39;97533.59;;;9.74;65.48
41306;BME280;27051;50.376;19.152;2024-03-02T00:57:15;97530.73;;;9.76;65.62
41306;BME280;27051;50.376;19.152;2024-03-02T00:59:47;97528.45;;;9.88;65.75
41306;BME280;27051;50.376;19.152;2024-03-02T01:02:45;97534.95;;;9.93;65.60
41306;BME280;27051;50.376;19.152;2024-03-02T01:05:41;97523.27;;;10.02;65.61
41306;BME280;27051;50.376;19.152;2024-03-02T01:13:30;97522.15;;;10.24;65.47
41306;BME280;27051;50.376;19.152;2024-03-02T01:15:58;97520.27;;;10.29;65.65
41306;BME280;27051;50.376;19.152;2024-03-02T01:18:47;97523.47;;;10.34;65.54
41306;BME280;27051;50.376;19.152;2024-03-02T01:21:13;97517.77;;;10.34;65.48
41306;BME280;27051;50.376;19.152;2024-03-02T01:24:00;97518.77;;;10.33;65.41
41306;BME280;27051;50.376;19.152;2024-03-02T01:26:27;97508.14;;;10.31;65.57
41306;BME280;27051;50.376;19.152;2024-03-02T01:28:57;97507.19;;;10.41;65.80
41306;BME280;27051;50.376;19.152;2024-03-02T01:31:33;97502.34;;;10.47;65.57
41306;BME280;27051;50.376;19.152;2024-03-02T01:34:03;97506.52;;;10.45;65.45
41306;BME280;27051;50.376;19.152;2024-03-02T01:36:30;97501.51;;;10.40;65.40
41306;BME280;27051;50.376;19.152;2024-03-02T01:38:57;97502.03;;;10.40;65.32
41306;BME280;27051;50.376;19.152;2024-03-02T01:44:05;97497.12;;;10.37;65.19
41306;BME280;27051;50.376;19.152;2024-03-02T01:46:32;97495.47;;;10.38;65.52
41306;BME280;27051;50.376;19.152;2024-03-02T01:49:02;97494.79;;;10.32;65.23
41306;BME280;27051;50.376;19.152;2024-03-02T01:51:31;97494.10;;;10.26;65.32
41306;BME280;27051;50.376;19.152;2024-03-02T01:53:59;97492.83;;;10.27;65.30
41306;BME280;27051;50.376;19.152;2024-03-02T01:56:35;97490.00;;;10.24;65.26
41306;BME280;27051;50.376;19.152;2024-03-02T01:59:11;97488.70;;;10.17;65.44
41306;BME280;27051;50.376;19.152;2024-03-02T02:01:41;97489.73;;;10.08;65.33
41306;BME280;27051;50.376;19.152;2024-03-02T02:04:12;97492.08;;;10.10;65.45
41306;BME280;27051;50.376;19.152;2024-03-02T02:06:44;97486.07;;;10.12;65.42
41306;BME280;27051;50.376;19.152;2024-03-02T02:09:11;97480.54;;;10.16;65.46
41306;BME280;27051;50.376;19.152;2024-03-02T02:11:41;97483.86;;;10.13;65.19
41306;BME280;27051;50.376;19.152;2024-03-02T02:14:11;97476.95;;;10.06;65.23
41306;BME280;27051;50.376;19.152;2024-03-02T02:16:47;97480.03;;;10.03;65.28
41306;BME280;27051;50.376;19.152;2024-03-02T02:19:14;97471.63;;;10.04;65.39
41306;BME280;27051;50.376;19.152;2024-03-02T02:21:45;97473.41;;;10.09;65.54
41306;BME280;27051;50.376;19.152;2024-03-02T02:24:28;97474.54;;;10.11;65.28
41306;BME280;27051;50.376;19.152;2024-03-02T02:27:10;97470.55;;;10.11;65.36
41306;BME280;27051;50.376;19.152;2024-03-02T02:29:37;97469.75;;;10.10;65.24
41306;BME280;27051;50.376;19.152;2024-03-02T02:34:54;97470.70;;;10.11;65.31
41306;BME280;27051;50.376;19.152;2024-03-02T02:37:22;97462.44;;;10.12;65.25
41306;BME280;27051;50.376;19.152;2024-03-02T02:39:49;97463.66;;;10.09;65.28
41306;BME280;27051;50.376;19.152;2024-03-02T02:42:36;97464.33;;;10.04;65.18
41306;BME280;27051;50.376;19.152;2024-03-02T02:45:06;97459.55;;;10.00;65.22
41306;BME280;27051;50.376;19.152;2024-03-02T02:47:43;97462.59;;;9.95;65.30
41306;BME280;27051;50.376;19.152;2024-03-02T02:50:20;97462.89;;;9.91;65.40
41306;BME280;27051;50.376;19.152;2024-03-02T02:52:47;97466.30;;;9.89;65.44
41306;BME280;27051;50.376;19.152;2024-03-02T02:55:22;97467.67;;;9.86;65.43
41306;BME280;27051;50.376;19.152;2024-03-02T02:57:50;97465.73;;;9.84;65.64
41306;BME280;27051;50.376;19.152;2024-03-02T03:00:17;97468.13;;;9.88;65.62
41306;BME280;27051;50.376;19.152;2024-03-02T03:03:03;97465.00;;;9.93;65.64
41306;BME280;27051;50.376;19.152;2024-03-02T03:05:30;97468.83;;;9.99;65.63
41306;BME280;27051;50.376;19.152;2024-03-02T03:08:05;97463.58;;;10.01;65.52
41306;BME280;27051;50.376;19.152;2024-03-02T03:10:35;97466.16;;;10.07;65.79
41306;BME280;27051;50.376;19.152;2024-03-02T03:13:04;97473.30;;;10.08;65.33
41306;BME280;27051;50.376;19.152;2024-03-02T03:15:35;97465.23;;;9.99;65.29
41306;BME280;27051;50.376;19.152;2024-03-02T03:18:22;97466.09;;;10.00;65.42
41306;BME280;27051;50.376;19.152;2024-03-02T03:21:04;97468.48;;;9.94;65.33
41306;BME280;27051;50.376;19.152;2024-03-02T03:23:34;97467.34;;;9.81;65.24
41306;BME280;27051;50.376;19.152;2024-03-02T03:26:11;97463.63;;;9.79;65.60
41306;BME280;27051;50.376;19.152;2024-03-02T03:28:38;97461.52;;;9.84;65.59
41306;BME280;27051;50.376;19.152;2024-03-02T03:31:05;97459.23;;;9.88;65.62
41306;BME280;27051;50.376;19.152;2024-03-02T03:33:44;97454.14;;;9.94;65.57
41306;BME280;27051;50.376;19.152;2024-03-02T03:36:21;97455.30;;;9.95;65.51
41306;BME280;27051;50.376;19.152;2024-03-02T03:38:53;97455.15;;;9.95;65.41
41306;BME280;27051;50.376;19.152;2024-03-02T03:41:20;97456.05;;;9.94;65.50
41306;BME280;27051;50.376;19.152;2024-03-02T03:43:48;97456.34;;;9.93;65.52
41306;BME280;27051;50.376;19.152;2024-03-02T03:46:18;97463.03;;;9.90;65.54
41306;BME280;27051;50.376;19.152;2024-03-02T03:48:45;97467.56;;;9.94;65.49
41306;BME280;27051;50.376;19.152;2024-03-02T03:51:14;97473.35;;;9.92;65.45
41306;BME280;27051;50.376;19.152;2024-03-02T03:53:42;97472.70;;;9.87;65.24
41306;BME280;27051;50.376;19.152;2024-03-02T03:56:25;97466.70;;;9.87;65.53
41306;BME280;27051;50.376;19.152;2024-03-02T03:58:55;97471.04;;;9.88;65.48
41306;BME280;27051;50.376;19.152;2024-03-02T04:01:22;97467.98;;;9.89;65.53
41306;BME280;27051;50.376;19.152;2024-03-02T04:03:53;97467.83;;;9.96;65.66
41306;BME280;27051;50.376;19.152;2024-03-02T04:09:15;97462.33;;;10.11;65.62
41306;BME280;27051;50.376;19.152;2024-03-02T04:11:52;97462.88;;;10.15;65.51
41306;BME280;27051;50.376;19.152;2024-03-02T04:14:21;97457.20;;;10.18;65.46
41306;BME280;27051;50.376;19.152;2024-03-02T04:16:49;97458.24;;;10.10;65.28
41306;BME280;27051;50.376;19.152;2024-03-02T04:19:36;97456.73;;;10.08;65.31
41306;BME280;27051;50.376;19.152;2024-03-02T04:22:03;97457.40;;;10.07;65.29
41306;BME280;27051;50.376;19.152;2024-03-02T04:24:33;97456.48;;;10.03;65.21
41306;BME280;27051;50.376;19.152;2024-03-02T04:27:03;97459.21;;;9.97;65.25
41306;BME280;27051;50.376;19.152;2024-03-02T04:29:31;97464.42;;;9.98;65.48
41306;BME280;27051;50.376;19.152;2024-03-02T04:34:55;97466.66;;;10.09;65.40
41306;BME280;27051;50.376;19.152;2024-03-02T04:37:33;97471.04;;;10.09;65.26
41306;BME280;27051;50.376;19.152;2024-03-02T04:40:04;97474.24;;;10.02;65.21
41306;BME280;27051;50.376;19.152;2024-03-02T04:42:40;97470.05;;;9.96;65.26
41306;BME280;27051;50.376;19.152;2024-03-02T04:45:16;97473.64;;;9.95;65.39
41306;BME280;27051;50.376;19.152;2024-03-02T04:47:43;97468.58;;;9.89;65.11
41306;BME280;27051;50.376;19.152;2024-03-02T04:50:14;97469.63;;;9.87;65.51
41306;BME280;27051;50.376;19.152;2024-03-02T04:52:48;97469.15;;;9.93;65.54
41306;BME280;27051;50.376;19.152;2024-03-02T04:55:16;97470.38;;;9.96;65.52
41306;BME280;27051;50.376;19.152;2024-03-02T04:57:43;97469.34;;;9.98;65.43
41306;BME280;27051;50.376;19.152;2024-03-02T05:00:11;97467.49;;;9.91;65.31
41306;BME280;27051;50.376;19.152;2024-03-02T05:02:41;97470.33;;;9.91;65.57
41306;BME280;27051;50.376;19.152;2024-03-02T05:05:14;97468.34;;;9.94;65.43
41306;BME280;27051;50.376;19.152;2024-03-02T05:07:44;97469.06;;;9.93;65.34
41306;BME280;27051;50.376;19.152;2024-03-02T05:10:23;97472.35;;;9.89;65.42
41306;BME280;27051;50.376;19.152;2024-03-02T05:12:53;97471.37;;;9.79;65.37
41306;BME280;27051;50.376;19.152;2024-03-02T05:18:10;97480.77;;;9.92;65.47
41306;BME280;27051;50.376;19.152;2024-03-02T05:21:03;97482.58;;;9.87;65.38
41306;BME280;27051;50.376;19.152;2024-03-02T05:23:33;97490.10;;;9.84;65.75
41306;BME280;27051;50.376;19.152;2024-03-02T05:26:16;97489.92;;;9.82;65.51
41306;BME280;27051;50.376;19.152;2024-03-02T05:28:43;97490.48;;;9.61;65.18
41306;BME280;27051;50.376;19.152;2024-03-02T05:31:11;97492.02;;;9.45;65.40
41306;BME280;27051;50.376;19.152;2024-03-02T05:36:47;97494.19;;;9.49;65.87
41306;BME280;27051;50.376;19.152;2024-03-02T05:39:16;97490.45;;;9.63;66.22
41306;BME280;27051;50.376;19.152;2024-03-02T05:41:43;97487.18;;;9.77;66.06
41306;BME280;27051;50.376;19.152;2024-03-02T05:44:10;97491.20;;;9.85;66.01
41306;BME280;27051;50.376;19.152;2024-03-02T05:46:40;97490.12;;;9.88;65.92
41306;BME280;27051;50.376;19.152;2024-03-02T05:49:10;97500.34;;;9.92;65.98
41306;BME280;27051;50.376;19.152;2024-03-02T05:51:42;97498.77;;;9.97;65.91
41306;BME280;27051;50.376;19.152;2024-03-02T05:54:09;97507.54;;;10.09;65.87
41306;BME280;27051;50.376;19.152;2024-03-02T05:56:39;97510.44;;;10.05;65.67
41306;BME280;27051;50.376;19.152;2024-03-02T05:59:12;97509.12;;;10.07;65.90
41306;BME280;27051;50.376;19.152;2024-03-02T06:01:41;97512.98;;;10.18;65.89
41306;BME280;27051;50.376;19.152;2024-03-02T06:04:16;97514.60;;;10.22;65.84
41306;BME280;27051;50.376;19.152;2024-03-02T06:06:47;97518.16;;;10.20;65.72
41306;BME280;27051;50.376;19.152;2024-03-02T06:09:14;97519.55;;;10.17;65.81
41306;BME280;27051;50.376;19.152;2024-03-02T06:11:41;97522.34;;;10.19;65.91
41306;BME280;27051;50.376;19.152;2024-03-02T06:14:19;97523.57;;;10.22;65.93
41306;BME280;27051;50.376;19.152;2024-03-02T06:16:53;97526.95;;;10.23;65.84
41306;BME280;27051;50.376;19.152;2024-03-02T06:19:20;97528.76;;;10.25;66.02
41306;BME280;27051;50.376;19.152;2024-03-02T06:21:48;97529.41;;;10.29;66.00
41306;BME280;27051;50.376;19.152;2024-03-02T06:24:15;97525.02;;;10.38;66.00
41306;BME280;27051;50.376;19.152;2024-03-02T06:27:02;97521.00;;;10.48;65.98
41306;BME280;27051;50.376;19.152;2024-03-02T06:29:29;97519.67;;;10.50;65.77
41306;BME280;27051;50.376;19.152;2024-03-02T06:31:59;97521.98;;;10.44;65.74
41306;BME280;27051;50.376;19.152;2024-03-02T06:34:32;97524.11;;;10.46;66.05
41306;BME280;27051;50.376;19.152;2024-03-02T06:36:59;97532.08;;;10.53;65.94
41306;BME280;27051;50.376;19.152;2024-03-02T06:39:26;97526.21;;;10.58;66.05
41306;BME280;27051;50.376;19.152;2024-03-02T06:41:53;97524.52;;;10.70;66.13
41306;BME280;27051;50.376;19.152;2024-03-02T06:44:20;97522.92;;;10.86;66.12
41306;BME280;27051;50.376;19.152;2024-03-02T06:46:48;97518.68;;;10.93;65.75
41306;BME280;27051;50.376;19.152;2024-03-02T06:49:15;97522.14;;;10.94;65.60
41306;BME280;27051;50.376;19.152;2024-03-02T06:51:42;97527.27;;;11.01;65.49
41306;BME280;27051;50.376;19.152;2024-03-02T06:54:09;97524.13;;;11.00;65.27
41306;BME280;27051;50.376;19.152;2024-03-02T06:56:39;97521.34;;;11.00;65.38
41306;BME280;27051;50.376;19.152;2024-03-02T06:59:06;97525.58;;;11.08;65.40
41306;BME280;27051;50.376;19.152;2024-03-02T07:01:33;97525.89;;;11.13;65.35
41306;BME280;27051;50.376;19.152;2024-03-02T07:04:03;97521.72;;;11.20;65.39
41306;BME280;27051;50.376;19.152;2024-03-02T07:06:30;97521.64;;;11.34;65.47
41306;BME280;27051;50.376;19.152;2024-03-02T07:08:57;97526.45;;;11.31;64.99
41306;BME280;27051;50.376;19.152;2024-03-02T07:11:25;97525.58;;;11.34;65.00
41306;BME280;27051;50.376;19.152;2024-03-02T07:13:58;97525.48;;;11.42;64.99
41306;BME280;27051;50.376;19.152;2024-03-02T07:16:26;97527.83;;;11.52;65.08
41306;BME280;27051;50.376;19.152;2024-03-02T07:18:54;97531.43;;;11.61;64.79
41306;BME280;27051;50.376;19.152;2024-03-02T07:21:21;97532.69;;;11.68;64.79
41306;BME280;27051;50.376;19.152;2024-03-02T07:23:52;97536.90;;;11.77;64.75
41306;BME280;27051;50.376;19.152;2024-03-02T07:26:19;97533.95;;;11.88;64.78
41306;BME280;27051;50.376;19.152;2024-03-02T07:28:47;97537.38;;;12.00;64.69
41306;BME280;27051;50.376;19.152;2024-03-02T07:31:19;97535.29;;;12.09;64.32
41306;BME280;27051;50.376;19.152;2024-03-02T07:33:46;97536.42;;;12.23;64.43
41306;BME280;27051;50.376;19.152;2024-03-02T07:36:14;97535.42;;;12.40;64.49
41306;BME280;27051;50.376;19.152;2024-03-02T07:44:03;97539.05;;;12.83;63.54
41306;BME280;27051;50.376;19.152;2024-03-02T07:46:30;97542.02;;;12.87;63.14
41306;BME280;27051;50.376;19.152;2024-03-02T07:48:57;97545.77;;;12.90;63.38
41306;BME280;27051;50.376;19.152;2024-03-02T07:51:30;97553.13;;;12.93;63.14
41306;BME280;27051;50.376;19.152;2024-03-02T07:54:00;97555.34;;;12.92;63.01
41306;BME280;27051;50.376;19.152;2024-03-02T07:56:27;97553.02;;;12.97;62.98
41306;BME280;27051;50.376;19.152;2024-03-02T07:58:54;97554.30;;;13.02;62.83
41306;BME280;27051;50.376;19.152;2024-03-02T08:01:26;97553.08;;;13.09;62.68
41306;BME280;27051;50.376;19.152;2024-03-02T08:03:57;97555.45;;;13.15;62.89
41306;BME280;27051;50.376;19.152;2024-03-02T08:06:36;97559.43;;;13.25;63.09
41306;BME280;27051;50.376;19.152;2024-03-02T08:09:06;97562.59;;;13.38;62.77
41306;BME280;27051;50.376;19.152;2024-03-02T08:11:33;97569.09;;;13.48;62.82
41306;BME280;27051;50.376;19.152;2024-03-02T08:14:08;97572.23;;;13.54;62.77
41306;BME280;27051;50.376;19.152;2024-03-02T08:16:55;97571.65;;;13.65;62.58
41306;BME280;27051;50.376;19.152;2024-03-02T08:19:25;97569.08;;;13.80;62.49
41306;BME280;27051;50.376;19.152;2024-03-02T08:22:03;97569.91;;;13.87;62.00
41306;BME280;27051;50.376;19.152;2024-03-02T08:24:31;97573.14;;;13.95;62.00
41306;BME280;27051;50.376;19.152;2024-03-02T08:26:59;97574.01;;;13.97;61.85
41306;BME280;27051;50.376;19.152;2024-03-02T08:29:27;97572.59;;;13.95;61.69
41306;BME280;27051;50.376;19.152;2024-03-02T08:31:56;97577.39;;;13.96;61.63
41306;BME280;27051;50.376;19.152;2024-03-02T08:34:29;97582.27;;;13.96;61.50
41306;BME280;27051;50.376;19.152;2024-03-02T08:37:01;97578.90;;;13.92;61.39
41306;BME280;27051;50.376;19.152;2024-03-02T08:39:29;97577.06;;;13.84;61.43
41306;BME280;27051;50.376;19.152;2024-03-02T08:42:28;97577.34;;;13.81;61.35
41306;BME280;27051;50.376;19.152;2024-03-02T08:44:57;97581.56;;;13.77;61.34
41306;BME280;27051;50.376;19.152;2024-03-02T08:47:24;97582.36;;;13.72;61.06
41306;BME280;27051;50.376;19.152;2024-03-02T08:49:54;97579.80;;;13.62;61.39
41306;BME280;27051;50.376;19.152;2024-03-02T08:52:23;97576.11;;;13.64;61.56
41306;BME280;27051;50.376;19.152;2024-03-02T08:54:53;97574.23;;;13.69;61.59
41306;BME280;27051;50.376;19.152;2024-03-02T08:57:22;97578.75;;;13.75;61.59
41306;BME280;27051;50.376;19.152;2024-03-02T08:59:49;97579.16;;;13.77;61.40
41306;BME280;27051;50.376;19.152;2024-03-02T09:02:16;97581.30;;;13.76;61.19
41306;BME280;27051;50.376;19.152;2024-03-02T09:04:46;97584.41;;;13.68;60.98
41306;BME280;27051;50.376;19.152;2024-03-02T09:07:13;97584.94;;;13.67;61.14
41306;BME280;27051;50.376;19.152;2024-03-02T09:09:43;97587.33;;;13.67;61.17
41306;BME280;27051;50.376;19.152;2024-03-02T09:12:20;97584.07;;;13.65;61.02
41306;BME280;27051;50.376;19.152;2024-03-02T09:14:47;97585.35;;;13.61;61.09
41306;BME280;27051;50.376;19.152;2024-03-02T09:17:19;97584.09;;;13.61;60.71
41306;BME280;27051;50.376;19.152;2024-03-02T09:19:46;97586.94;;;13.59;60.86
41306;BME280;27051;50.376;19.152;2024-03-02T09:22:17;97588.35;;;13.54;60.73
41306;BME280;27051;50.376;19.152;2024-03-02T09:24:44;97586.42;;;13.54;60.71
41306;BME280;27051;50.376;19.152;2024-03-02T09:27:22;97587.91;;;13.56;60.63
41306;BME280;27051;50.376;19.152;2024-03-02T09:29:52;97592.55;;;13.56;60.43
41306;BME280;27051;50.376;19.152;2024-03-02T09:32:28;97592.61;;;13.56;60.47
41306;BME280;27051;50.376;19.152;2024-03-02T09:34:58;97591.53;;;13.55;60.42
41306;BME280;27051;50.376;19.152;2024-03-02T09:37:39;97591.91;;;13.55;60.28
41306;BME280;27051;50.376;19.152;2024-03-02T09:40:27;97590.52;;;13.54;60.06
41306;BME280;27051;50.376;19.152;2024-03-02T09:43:14;97600.29;;;13.52;60.07
41306;BME280;27051;50.376;19.152;2024-03-02T09:45:50;97603.23;;;13.46;59.98
41306;BME280;27051;50.376;19.152;2024-03-02T09:48:45;97602.59;;;13.44;59.94
41306;BME280;27051;50.376;19.152;2024-03-02T09:51:13;97597.96;;;13.43;60.07
41306;BME280;27051;50.376;19.152;2024-03-02T09:53:41;97603.36;;;13.50;60.25
41306;BME280;27051;50.376;19.152;2024-03-02T09:56:26;97600.50;;;13.58;60.37
41306;BME280;27051;50.376;19.152;2024-03-02T09:59:01;97601.51;;;13.64;59.93
41306;BME280;27051;50.376;19.152;2024-03-02T10:01:28;97607.12;;;13.71;59.78
41306;BME280;27051;50.376;19.152;2024-03-02T10:03:58;97604.79;;;13.79;59.79
41306;BME280;27051;50.376;19.152;2024-03-02T10:06:27;97602.60;;;13.91;59.85
41306;BME280;27051;50.376;19.152;2024-03-02T10:08:57;97603.80;;;14.06;59.72
41306;BME280;27051;50.376;19.152;2024-03-02T10:12:01;97603.03;;;14.16;59.53
41306;BME280;27051;50.376;19.152;2024-03-02T10:14:40;97600.97;;;14.20;59.46
41306;BME280;27051;50.376;19.152;2024-03-02T10:17:22;97602.64;;;14.26;59.36
41306;BME280;27051;50.376;19.152;2024-03-02T10:20:24;97597.67;;;14.32;59.20
41306;BME280;27051;50.376;19.152;2024-03-02T10:23:13;97597.73;;;14.41;58.82
41306;BME280;27051;50.376;19.152;2024-03-02T10:26:03;97598.39;;;14.46;58.94
41306;BME280;27051;50.376;19.152;2024-03-02T10:28:37;97600.19;;;14.58;59.01
41306;BME280;27051;50.376;19.152;2024-03-02T10:31:30;97600.40;;;14.68;59.00
41306;BME280;27051;50.376;19.152;2024-03-02T10:36:56;97601.31;;;14.80;58.99
41306;BME280;27051;50.376;19.152;2024-03-02T10:42:34;97605.55;;;14.77;58.72
41306;BME280;27051;50.376;19.152;2024-03-02T10:45:25;97603.90;;;14.73;58.18
41306;BME280;27051;50.376;19.152;2024-03-02T10:48:05;97611.76;;;14.68;58.34
41306;BME280;27051;50.376;19.152;2024-03-02T10:50:42;97608.65;;;14.66;58.05
41306;BME280;27051;50.376;19.152;2024-03-02T10:53:17;97612.98;;;14.65;58.01
41306;BME280;27051;50.376;19.152;2024-03-02T10:55:49;97611.59;;;14.65;57.99
41306;BME280;27051;50.376;19.152;2024-03-02T10:58:21;97605.58;;;14.68;58.10
41306;BME280;27051;50.376;19.152;2024-03-02T11:00:51;97603.88;;;14.69;57.57
41306;BME280;27051;50.376;19.152;2024-03-02T11:03:22;97607.29;;;14.70;57.85
41306;BME280;27051;50.376;19.152;2024-03-02T11:05:53;97605.08;;;14.76;57.82
41306;BME280;27051;50.376;19.152;2024-03-02T11:08:42;97603.54;;;14.76;57.63
41306;BME280;27051;50.376;19.152;2024-03-02T11:11:15;97605.08;;;14.76;57.28
41306;BME280;27051;50.376;19.152;2024-03-02T11:13:49;97605.53;;;14.75;57.16
41306;BME280;27051;50.376;19.152;2024-03-02T11:16:34;97602.45;;;14.74;56.90
41306;BME280;27051;50.376;19.152;2024-03-02T11:19:21;97601.23;;;14.79;57.28
41306;BME280;27051;50.376;19.152;2024-03-02T11:21:51;97602.11;;;14.86;56.95
41306;BME280;27051;50.376;19.152;2024-03-02T11:26:51;97593.80;;;14.91;57.07
41306;BME280;27051;50.376;19.152;2024-03-02T11:29:46;97590.20;;;15.00;57.10
41306;BME280;27051;50.376;19.152;2024-03-02T11:32:20;97588.62;;;15.11;56.59
41306;BME280;27051;50.376;19.152;2024-03-02T11:34:49;97589.27;;;15.18;56.84
41306;BME280;27051;50.376;19.152;2024-03-02T11:37:40;97586.98;;;15.33;56.91
41306;BME280;27051;50.376;19.152;2024-03-02T11:40:09;97586.18;;;15.47;56.66
41306;BME280;27051;50.376;19.152;2024-03-02T11:42:39;97580.86;;;15.57;56.31
41306;BME280;27051;50.376;19.152;2024-03-02T11:45:08;97581.56;;;15.61;56.37
41306;BME280;27051;50.376;19.152;2024-03-02T11:47:46;97577.69;;;15.63;56.17
41306;BME280;27051;50.376;19.152;2024-03-02T11:50:43;97575.52;;;15.63;56.15
41306;BME280;27051;50.376;19.152;2024-03-02T11:53:18;97574.83;;;15.64;55.95
41306;BME280;27051;50.376;19.152;2024-03-02T11:56:06;97575.54;;;15.64;56.15
41306;BME280;27051;50.376;19.152;2024-03-02T11:58:35;97571.35;;;15.60;55.90
41306;BME280;27051;50.376;19.152;2024-03-02T12:01:16;97568.86;;;15.53;55.73
41306;BME280;27051;50.376;19.152;2024-03-02T12:03:43;97569.02;;;15.54;55.63
41306;BME280;27051;50.376;19.152;2024-03-02T12:06:11;97566.85;;;15.60;55.80
41306;BME280;27051;50.376;19.152;2024-03-02T12:08:55;97566.32;;;15.65;55.77
41306;BME280;27051;50.376;19.152;2024-03-02T12:11:30;97562.18;;;15.71;55.46
41306;BME280;27051;50.376;19.152;2024-03-02T12:13:57;97564.59;;;15.73;55.22
41306;BME280;27051;50.376;19.152;2024-03-02T12:16:43;97560.06;;;15.67;55.04
41306;BME280;27051;50.376;19.152;2024-03-02T12:19:16;97556.41;;;15.63;55.16
41306;BME280;27051;50.376;19.152;2024-03-02T12:21:43;97553.93;;;15.59;55.20
41306;BME280;27051;50.376;19.152;2024-03-02T12:24:10;97561.44;;;15.56;55.48
41306;BME280;27051;50.376;19.152;2024-03-02T12:26:40;97558.58;;;15.58;55.31
41306;BME280;27051;50.376;19.152;2024-03-02T12:29:08;97551.85;;;15.63;55.50
41306;BME280;27051;50.376;19.152;2024-03-02T12:31:35;97552.94;;;15.66;55.30
41306;BME280;27051;50.376;19.152;2024-03-02T12:34:03;97551.46;;;15.66;54.99
41306;BME280;27051;50.376;19.152;2024-03-02T12:36:37;97552.69;;;15.59;55.00
41306;BME280;27051;50.376;19.152;2024-03-02T12:39:08;97551.45;;;15.57;54.99
41306;BME280;27051;50.376;19.152;2024-03-02T12:41:52;97558.19;;;15.59;55.07
41306;BME280;27051;50.376;19.152;2024-03-02T12:44:21;97554.88;;;15.64;55.05
41306;BME280;27051;50.376;19.152;2024-03-02T12:47:09;97554.74;;;15.72;55.10
41306;BME280;27051;50.376;19.152;2024-03-02T12:52:37;97556.47;;;15.99;54.59
41306;BME280;27051;50.376;19.152;2024-03-02T12:55:26;97556.07;;;16.12;54.58
41306;BME280;27051;50.376;19.152;2024-03-02T12:57:52;97552.81;;;16.18;54.10
41306;BME280;27051;50.376;19.152;2024-03-02T13:00:20;97551.96;;;16.20;54.15
41306;BME280;27051;50.376;19.152;2024-03-02T13:02:53;97553.04;;;16.26;54.20
41306;BME280;27051;50.376;19.152;2024-03-02T13:05:24;97554.34;;;16.31;54.39
41306;BME280;27051;50.376;19.152;2024-03-02T13:07:54;97553.73;;;16.26;53.68
41306;BME280;27051;50.376;19.152;2024-03-02T13:10:31;97552.05;;;16.12;53.84
41306;BME280;27051;50.376;19.152;2024-03-02T13:13:05;97554.69;;;15.98;53.96
41306;BME280;27051;50.376;19.152;2024-03-02T13:15:33;97554.52;;;15.88;53.97
41306;BME280;27051;50.376;19.152;2024-03-02T13:18:01;97545.31;;;15.74;54.27
41306;BME280;27051;50.376;19.152;2024-03-02T13:20:41;97541.31;;;15.61;54.12
41306;BME280;27051;50.376;19.152;2024-03-02T13:23:08;97540.52;;;15.44;54.71
41306;BME280;27051;50.376;19.152;2024-03-02T13:25:35;97541.41;;;15.28;54.62
41306;BME280;27051;50.376;19.152;2024-03-02T13:28:09;97537.06;;;15.18;54.95
41306;BME280;27051;50.376;19.152;2024-03-02T13:30:39;97538.05;;;15.12;55.23
41306;BME280;27051;50.376;19.152;2024-03-02T13:33:07;97537.19;;;15.06;55.41
41306;BME280;27051;50.376;19.152;2024-03-02T13:35:37;97539.87;;;15.00;55.61
41306;BME280;27051;50.376;19.152;2024-03-02T13:38:06;97538.84;;;14.92;55.70
41306;BME280;27051;50.376;19.152;2024-03-02T13:40:33;97542.08;;;14.90;55.95
41306;BME280;27051;50.376;19.152;2024-03-02T13:43:03;97544.77;;;14.87;55.98
41306;BME280;27051;50.376;19.152;2024-03-02T13:45:30;97547.84;;;14.83;55.93
41306;BME280;27051;50.376;19.152;2024-03-02T13:47:57;97551.62;;;14.81;56.20
41306;BME280;27051;50.376;19.152;2024-03-02T13:50:30;97556.09;;;14.80;56.18
41306;BME280;27051;50.376;19.152;2024-03-02T13:53:19;97561.88;;;14.77;56.05
41306;BME280;27051;50.376;19.152;2024-03-02T13:55:45;97559.38;;;14.72;56.02
41306;BME280;27051;50.376;19.152;2024-03-02T13:58:24;97563.01;;;14.71;56.11
41306;BME280;27051;50.376;19.152;2024-03-02T14:00:54;97562.48;;;14.71;56.18
41306;BME280;27051;50.376;19.152;2024-03-02T14:03:27;97564.48;;;14.71;56.30